createdAt,value
2022-12-08T00:00:08.262Z,12.40
2022-12-08T00:02:35.147Z,14.30
2022-12-08T00:05:20.584Z,12.32
2022-12-08T00:08:06.144Z,16.70
2022-12-08T00:10:49.752Z,13.90
2022-12-08T00:13:16.921Z,13.73
2022-12-08T00:15:43.664Z,12.25
2022-12-08T00:18:10.380Z,13.43
2022-12-08T00:20:37.140Z,15.88
2022-12-08T00:23:04.343Z,15.80
2022-12-08T00:25:31.815Z,13.13
2022-12-08T00:27:58.602Z,14.18
2022-12-08T00:30:25.335Z,14.63
2022-12-08T00:32:52.080Z,14.43
2022-12-08T00:35:18.824Z,14.57
2022-12-08T00:37:46.389Z,14.70
2022-12-08T00:40:13.169Z,13.73
2022-12-08T00:42:39.893Z,15.80
2022-12-08T00:45:07.151Z,14.13
2022-12-08T00:47:33.976Z,15.00
2022-12-08T00:50:00.721Z,14.10
2022-12-08T00:52:27.560Z,13.32
2022-12-08T00:54:54.281Z,13.32
2022-12-08T00:57:21.000Z,13.95
2022-12-08T00:59:47.729Z,13.02
2022-12-08T01:02:15.208Z,13.30
2022-12-08T01:04:42.015Z,12.70
2022-12-08T01:07:09.029Z,11.95
2022-12-08T01:09:36.026Z,13.48
2022-12-08T01:12:02.739Z,13.50
2022-12-08T01:14:29.466Z,12.68
2022-12-08T01:16:56.194Z,12.30
2022-12-08T01:19:22.985Z,13.10
2022-12-08T01:21:49.688Z,13.50
2022-12-08T01:24:19.831Z,13.30
2022-12-08T01:26:48.139Z,13.10
2022-12-08T01:29:15.179Z,14.35
2022-12-08T01:31:41.973Z,14.55
2022-12-08T01:34:10.279Z,13.10
2022-12-08T01:36:38.220Z,12.85
2022-12-08T01:39:08.056Z,14.38
2022-12-08T01:41:37.447Z,13.98
2022-12-08T01:44:08.286Z,14.70
2022-12-08T01:46:37.419Z,14.35
2022-12-08T01:49:19.142Z,13.57
2022-12-08T01:51:51.309Z,15.30
2022-12-08T01:54:19.622Z,13.98
2022-12-08T01:56:58.651Z,14.82
2022-12-08T01:59:26.104Z,14.90
2022-12-08T02:01:53.159Z,14.20
2022-12-08T02:04:19.908Z,14.35
2022-12-08T02:06:48.791Z,15.15
2022-12-08T02:09:15.666Z,14.32
2022-12-08T02:11:42.378Z,14.75
2022-12-08T02:14:11.768Z,16.27
2022-12-08T02:16:49.351Z,14.85
2022-12-08T02:19:31.239Z,16.23
2022-12-08T02:22:07.028Z,15.32
2022-12-08T02:24:39.042Z,16.88
2022-12-08T02:27:11.895Z,14.38
2022-12-08T02:30:15.373Z,15.85
2022-12-08T02:33:19.673Z,17.05
2022-12-08T02:36:00.069Z,15.43
2022-12-08T02:38:38.813Z,16.45
2022-12-08T02:41:23.533Z,16.70
2022-12-08T02:44:13.523Z,15.15
2022-12-08T02:46:54.185Z,15.75
2022-12-08T02:49:20.974Z,15.98
2022-12-08T02:51:47.689Z,15.98
2022-12-08T02:54:15.468Z,14.93
2022-12-08T02:56:45.270Z,15.88
2022-12-08T02:59:56.779Z,16.05
2022-12-08T03:02:48.045Z,16.80
2022-12-08T03:05:31.511Z,16.45
2022-12-08T03:08:14.173Z,16.05
2022-12-08T03:10:52.365Z,16.58
2022-12-08T03:13:29.619Z,14.85
2022-12-08T03:15:56.947Z,14.82
2022-12-08T03:18:28.500Z,16.17
2022-12-08T03:20:55.958Z,15.18
2022-12-08T03:23:24.045Z,16.00
2022-12-08T03:26:15.338Z,15.93
2022-12-08T03:28:42.292Z,15.63
2022-12-08T03:31:14.467Z,15.35
2022-12-08T03:33:44.612Z,14.45
2022-12-08T03:36:13.168Z,15.23
2022-12-08T03:38:42.528Z,14.18
2022-12-08T03:41:18.471Z,14.68
2022-12-08T03:43:53.004Z,15.50
2022-12-08T03:48:48.494Z,14.23
2022-12-08T03:51:15.996Z,14.88
2022-12-08T03:53:42.977Z,15.15
2022-12-08T03:56:24.268Z,15.73
2022-12-08T03:58:51.462Z,15.70
2022-12-08T04:01:18.382Z,15.35
2022-12-08T04:03:45.310Z,17.90
2022-12-08T04:06:12.193Z,16.45
2022-12-08T04:08:39.395Z,14.63
2022-12-08T04:11:06.729Z,15.43
2022-12-08T04:13:37.680Z,15.15
2022-12-08T04:16:05.402Z,15.13
2022-12-08T04:18:33.527Z,14.75
2022-12-08T04:21:00.435Z,14.13
2022-12-08T04:23:27.227Z,13.70
2022-12-08T04:25:54.245Z,14.27
2022-12-08T04:28:21.731Z,14.40
2022-12-08T04:30:49.682Z,14.50
2022-12-08T04:33:17.103Z,15.50
2022-12-08T04:35:43.893Z,14.95
2022-12-08T04:38:10.656Z,15.63
2022-12-08T04:40:37.374Z,15.68
2022-12-08T04:43:04.450Z,14.07
2022-12-08T04:45:31.898Z,13.70
2022-12-08T04:48:00.353Z,14.30
2022-12-08T04:50:27.526Z,15.25
2022-12-08T04:52:54.291Z,14.57
2022-12-08T04:55:21.399Z,15.10
2022-12-08T04:57:48.198Z,13.85
2022-12-08T05:00:16.477Z,13.25
2022-12-08T05:02:43.278Z,14.75
2022-12-08T05:05:10.563Z,13.00
2022-12-08T05:07:37.918Z,14.57
2022-12-08T05:10:05.779Z,13.88
2022-12-08T05:12:33.181Z,14.75
2022-12-08T05:14:59.882Z,14.25
2022-12-08T05:17:26.583Z,13.52
2022-12-08T05:19:53.374Z,14.43
2022-12-08T05:22:20.070Z,13.65
2022-12-08T05:24:47.791Z,12.48
2022-12-08T05:27:15.125Z,14.13
2022-12-08T05:29:42.316Z,13.52
2022-12-08T05:32:09.279Z,13.95
2022-12-08T05:34:36.101Z,13.73
2022-12-08T05:37:02.825Z,13.27
2022-12-08T05:39:29.561Z,15.82
2022-12-08T05:41:56.276Z,14.40
2022-12-08T05:44:23.061Z,12.40
2022-12-08T05:46:49.821Z,13.00
2022-12-08T05:49:16.583Z,13.48
2022-12-08T05:51:43.436Z,14.57
2022-12-08T05:54:10.478Z,13.55
2022-12-08T05:56:37.207Z,15.55
2022-12-08T05:59:07.001Z,15.10
2022-12-08T06:01:33.940Z,14.55
2022-12-08T06:04:02.247Z,15.93
2022-12-08T06:06:29.663Z,14.65
2022-12-08T06:08:56.523Z,15.45
2022-12-08T06:11:29.217Z,14.25
2022-12-08T06:13:56.848Z,15.98
2022-12-08T06:16:26.059Z,14.40
2022-12-08T06:18:53.471Z,15.25
2022-12-08T06:21:20.840Z,15.98
2022-12-08T06:23:52.854Z,18.83
2022-12-08T06:26:20.520Z,17.45
2022-12-08T06:28:47.604Z,16.10
2022-12-08T06:31:20.422Z,17.58
2022-12-08T06:33:47.795Z,16.58
2022-12-08T06:36:15.877Z,18.58
2022-12-08T06:38:43.835Z,18.05
2022-12-08T06:41:11.353Z,15.52
2022-12-08T06:43:38.619Z,16.80
2022-12-08T06:46:07.447Z,16.42
2022-12-08T06:48:34.622Z,15.43
2022-12-08T06:51:13.135Z,15.50
2022-12-08T06:53:41.114Z,15.88
2022-12-08T06:56:08.814Z,14.95
2022-12-08T06:58:35.793Z,16.35
2022-12-08T07:01:12.535Z,14.82
2022-12-08T07:03:40.327Z,14.45
2022-12-08T07:06:07.491Z,15.63
2022-12-08T07:08:34.949Z,13.85
2022-12-08T07:11:08.589Z,14.02
2022-12-08T07:13:35.453Z,13.98
2022-12-08T07:16:08.857Z,13.98
2022-12-08T07:18:36.399Z,12.23
2022-12-08T07:21:19.797Z,12.93
2022-12-08T07:23:50.187Z,14.45
2022-12-08T07:26:20.882Z,12.75
2022-12-08T07:28:47.585Z,11.43
2022-12-08T07:31:26.307Z,12.80
2022-12-08T07:33:53.502Z,11.55
2022-12-08T07:36:21.472Z,12.23
2022-12-08T07:38:49.214Z,10.80
2022-12-08T07:41:18.563Z,12.88
2022-12-08T07:43:45.772Z,13.40
2022-12-08T07:46:17.948Z,14.10
2022-12-08T07:48:44.939Z,13.07
2022-12-08T07:51:13.858Z,14.43
2022-12-08T07:53:43.396Z,15.73
2022-12-08T07:56:13.072Z,14.88
2022-12-08T07:58:40.673Z,14.48
2022-12-08T08:01:18.213Z,13.63
2022-12-08T08:03:45.033Z,14.77
2022-12-08T08:06:11.745Z,15.30
2022-12-08T08:08:42.159Z,16.02
2022-12-08T08:11:17.436Z,14.95
2022-12-08T08:13:47.459Z,17.13
2022-12-08T08:16:14.307Z,17.08
2022-12-08T08:18:41.361Z,18.58
2022-12-08T08:21:43.135Z,16.20
2022-12-08T08:23:54.874Z,16.95
2022-12-08T08:26:21.659Z,15.48
2022-12-08T08:28:49.992Z,15.02
2022-12-08T08:31:16.921Z,18.58
2022-12-08T08:33:43.789Z,15.73
2022-12-08T08:36:10.993Z,16.52
2022-12-08T08:38:42.815Z,14.63
2022-12-08T08:41:10.800Z,15.00
2022-12-08T08:43:38.836Z,15.10
2022-12-08T08:46:06.426Z,15.60
2022-12-08T08:48:33.357Z,14.55
2022-12-08T08:51:11.047Z,15.13
2022-12-08T08:53:38.256Z,13.80
2022-12-08T08:56:15.651Z,15.75
2022-12-08T08:58:42.573Z,15.35
2022-12-08T09:01:09.459Z,14.43
2022-12-08T09:03:36.264Z,16.05
2022-12-08T09:06:02.988Z,14.80
2022-12-08T09:08:29.857Z,13.95
2022-12-08T09:10:57.073Z,14.88
2022-12-08T09:13:23.840Z,17.10
2022-12-08T09:15:50.616Z,13.23
2022-12-08T09:18:17.428Z,16.13
2022-12-08T09:20:44.116Z,15.30
2022-12-08T09:23:10.923Z,15.98
2022-12-08T09:25:37.663Z,13.65
2022-12-08T09:28:04.487Z,15.90
2022-12-08T09:30:31.183Z,13.00
2022-12-08T09:32:57.885Z,13.38
2022-12-08T09:35:24.536Z,13.88
2022-12-08T09:37:51.206Z,12.70
2022-12-08T09:40:21.204Z,14.20
2022-12-08T09:42:51.407Z,15.95
2022-12-08T09:45:19.227Z,15.35
2022-12-08T09:47:57.864Z,16.42
2022-12-08T09:50:27.288Z,16.00
2022-12-08T09:52:59.824Z,17.15
2022-12-08T09:55:55.974Z,12.48
2022-12-08T09:58:29.663Z,10.98
2022-12-08T10:00:56.561Z,10.68
2022-12-08T10:03:28.999Z,14.18
2022-12-08T10:06:13.400Z,13.25
2022-12-08T10:09:32.871Z,12.43
2022-12-08T10:12:26.558Z,11.55
2022-12-08T10:15:10.208Z,12.38
2022-12-08T10:17:41.283Z,15.65
2022-12-08T10:20:21.229Z,15.35
2022-12-08T10:22:58.898Z,14.55
2022-12-08T10:25:45.439Z,10.40
2022-12-08T10:30:39.714Z,14.05
2022-12-08T10:33:15.528Z,13.40
2022-12-08T10:35:46.099Z,13.48
2022-12-08T10:38:31.101Z,14.32
2022-12-08T10:41:06.710Z,13.57
2022-12-08T10:43:34.373Z,12.23
2022-12-08T10:46:26.824Z,9.98
2022-12-08T10:49:11.589Z,13.95
2022-12-08T10:51:42.831Z,10.55
2022-12-08T10:54:34.062Z,13.27
2022-12-08T10:57:00.880Z,12.98
2022-12-08T10:59:27.693Z,12.20
2022-12-08T11:01:56.501Z,12.02
2022-12-08T11:04:34.059Z,10.93
2022-12-08T11:07:00.879Z,9.23
2022-12-08T11:09:43.810Z,12.38
2022-12-08T11:12:15.570Z,13.85
2022-12-08T11:14:45.782Z,16.58
2022-12-08T11:17:16.787Z,12.40
2022-12-08T11:20:10.471Z,10.02
2022-12-08T11:22:42.577Z,9.85
2022-12-08T11:25:17.852Z,10.75
2022-12-08T11:27:47.414Z,10.27
2022-12-08T11:30:19.391Z,10.30
2022-12-08T11:32:49.165Z,8.85
2022-12-08T11:35:32.532Z,8.57
2022-12-08T11:38:20.480Z,8.45
2022-12-08T11:41:15.799Z,7.85
2022-12-08T11:43:45.678Z,9.27
2022-12-08T11:46:19.802Z,7.88
2022-12-08T11:48:53.513Z,12.07
2022-12-08T11:51:29.301Z,10.35
2022-12-08T11:54:35.177Z,10.05
2022-12-08T11:57:05.681Z,7.78
2022-12-08T11:59:38.315Z,8.75
2022-12-08T12:02:06.084Z,9.40
2022-12-08T12:04:37.932Z,10.00
2022-12-08T12:07:35.091Z,8.93
2022-12-08T12:10:25.508Z,8.57
2022-12-08T12:12:52.179Z,6.15
2022-12-08T12:15:50.686Z,7.80
2022-12-08T12:18:46.317Z,8.23
2022-12-08T12:21:22.626Z,7.85
2022-12-08T12:23:59.278Z,8.63
2022-12-08T12:26:29.460Z,10.00
2022-12-08T12:29:07.119Z,8.27
2022-12-08T12:31:36.406Z,8.18
2022-12-08T12:34:17.263Z,8.63
2022-12-08T12:37:03.397Z,9.18
2022-12-08T12:39:34.309Z,9.43
2022-12-08T12:42:03.473Z,9.95
2022-12-08T12:44:30.150Z,9.60
2022-12-08T12:47:02.214Z,8.55
2022-12-08T12:49:41.055Z,8.65
2022-12-08T12:52:16.579Z,8.88
2022-12-08T12:54:49.510Z,8.15
2022-12-08T12:57:23.190Z,9.75
2022-12-08T12:59:55.592Z,8.40
2022-12-08T13:02:36.729Z,10.45
2022-12-08T13:05:26.891Z,9.13
2022-12-08T13:08:22.864Z,8.60
2022-12-08T13:11:00.203Z,9.05
2022-12-08T13:13:27.372Z,8.57
2022-12-08T13:15:56.672Z,9.10
2022-12-08T13:18:39.612Z,9.55
2022-12-08T13:21:09.264Z,10.02
2022-12-08T13:23:38.746Z,9.68
2022-12-08T13:26:09.796Z,10.00
2022-12-08T13:28:59.012Z,8.57
2022-12-08T13:31:57.895Z,8.95
2022-12-08T13:34:52.056Z,9.07
2022-12-08T13:37:55.955Z,11.32
2022-12-08T13:40:30.116Z,11.68
2022-12-08T13:43:10.538Z,9.98
2022-12-08T13:46:31.882Z,9.20
2022-12-08T13:50:36.631Z,10.05
2022-12-08T13:57:30.791Z,9.50
2022-12-08T14:00:04.090Z,10.20
2022-12-08T14:02:43.774Z,9.93
2022-12-08T14:05:19.401Z,9.13
2022-12-08T14:07:49.536Z,9.48
2022-12-08T14:10:18.490Z,10.07
2022-12-08T14:12:48.322Z,9.95
2022-12-08T14:15:15.950Z,10.02
2022-12-08T14:17:54.557Z,10.10
2022-12-08T14:20:30.060Z,9.30
2022-12-08T14:22:58.980Z,9.02
2022-12-08T14:25:29.672Z,10.20
2022-12-08T14:28:01.620Z,10.27
2022-12-08T14:30:33.471Z,10.52
2022-12-08T14:33:02.533Z,10.25
2022-12-08T14:35:37.927Z,8.75
2022-12-08T14:38:15.805Z,10.70
2022-12-08T14:41:04.304Z,9.65
2022-12-08T14:43:31.613Z,9.18
2022-12-08T14:46:05.088Z,9.45
2022-12-08T14:48:33.474Z,10.43
2022-12-08T14:51:13.132Z,9.80
2022-12-08T14:53:47.822Z,11.13
2022-12-08T14:56:18.283Z,10.68
2022-12-08T14:58:45.675Z,10.65
2022-12-08T15:01:21.363Z,10.35
2022-12-08T15:03:51.365Z,10.18
2022-12-08T15:06:21.843Z,11.05
2022-12-08T15:09:27.495Z,11.40
2022-12-08T15:12:06.389Z,11.75
2022-12-08T15:14:35.998Z,10.00
2022-12-08T15:17:03.198Z,12.70
2022-12-08T15:19:34.355Z,17.23
2022-12-08T15:22:20.932Z,10.25
2022-12-08T15:29:48.751Z,12.45
2022-12-08T15:32:19.423Z,10.73
2022-12-08T15:34:46.451Z,13.25
2022-12-08T15:37:19.156Z,10.65
2022-12-08T15:39:45.871Z,9.75
2022-12-08T15:42:14.499Z,10.10
2022-12-08T15:44:41.729Z,10.38
2022-12-08T15:47:19.795Z,10.60
2022-12-08T15:49:47.653Z,9.55
2022-12-08T15:52:16.970Z,9.05
2022-12-08T15:54:43.784Z,10.73
2022-12-08T15:57:53.025Z,11.85
2022-12-08T16:04:02.718Z,9.47
2022-12-08T16:09:12.432Z,11.25
2022-12-08T16:12:07.719Z,10.75
2022-12-08T16:17:23.461Z,11.35
2022-12-08T16:19:50.099Z,11.18
2022-12-08T16:25:20.336Z,11.38
2022-12-08T16:30:36.877Z,11.05
2022-12-08T16:33:03.911Z,12.38
2022-12-08T16:35:31.047Z,13.32
2022-12-08T16:37:58.237Z,12.13
2022-12-08T16:40:25.202Z,12.82
2022-12-08T16:42:51.932Z,12.77
2022-12-08T16:45:24.468Z,10.55
2022-12-08T16:47:56.524Z,13.35
2022-12-08T16:50:29.094Z,12.20
2022-12-08T16:53:07.563Z,11.30
2022-12-08T16:55:35.079Z,12.48
2022-12-08T16:58:02.804Z,13.00
2022-12-08T17:00:30.959Z,10.43
2022-12-08T17:02:58.912Z,11.60
2022-12-08T17:05:26.830Z,10.68
2022-12-08T17:07:54.220Z,12.15
2022-12-08T17:10:26.717Z,12.32
2022-12-08T17:12:53.576Z,12.45
2022-12-08T17:15:24.300Z,12.80
2022-12-08T17:17:51.562Z,10.60
2022-12-08T17:20:26.698Z,11.52
2022-12-08T17:22:55.351Z,11.60
2022-12-08T17:25:22.144Z,10.63
2022-12-08T17:27:48.894Z,11.73
2022-12-08T17:30:17.565Z,11.63
2022-12-08T17:32:44.551Z,11.77
2022-12-08T17:35:13.237Z,10.98
2022-12-08T17:37:40.405Z,11.18
2022-12-08T17:40:08.103Z,10.57
2022-12-08T17:42:35.027Z,12.02
2022-12-08T17:45:01.743Z,11.68
2022-12-08T17:47:28.469Z,10.43
2022-12-08T17:49:56.009Z,11.43
2022-12-08T17:52:22.814Z,12.07
2022-12-08T17:54:49.738Z,12.05
2022-12-08T17:57:16.416Z,11.73
2022-12-08T17:59:46.076Z,10.60
2022-12-08T18:02:12.814Z,11.93
2022-12-08T18:04:39.552Z,11.77
2022-12-08T18:07:06.245Z,12.13
2022-12-08T18:09:33.751Z,10.80
2022-12-08T18:12:00.497Z,10.40
2022-12-08T18:14:27.294Z,10.40
2022-12-08T18:16:54.097Z,11.57
2022-12-08T18:19:20.885Z,11.60
2022-12-08T18:21:47.561Z,11.77
2022-12-08T18:24:23.226Z,12.45
2022-12-08T18:26:52.047Z,11.88
2022-12-08T18:29:19.390Z,15.38
2022-12-08T18:31:46.070Z,14.07
2022-12-08T18:34:12.857Z,13.20
2022-12-08T18:36:39.606Z,12.75
2022-12-08T18:39:10.731Z,10.90
2022-12-08T18:41:37.839Z,12.30
2022-12-08T18:44:04.663Z,10.82
2022-12-08T18:46:31.763Z,12.23
2022-12-08T18:48:59.386Z,12.85
2022-12-08T18:51:26.083Z,10.23
2022-12-08T18:53:53.226Z,11.70
2022-12-08T18:56:31.232Z,10.95
2022-12-08T18:59:03.619Z,11.20
2022-12-08T19:01:34.831Z,11.77
2022-12-08T19:04:27.351Z,13.93
2022-12-08T19:06:51.773Z,12.32
2022-12-08T19:09:18.970Z,12.43
2022-12-08T19:11:45.662Z,11.23
2022-12-08T19:14:12.480Z,12.30
2022-12-08T19:16:39.154Z,12.88
2022-12-08T19:19:05.983Z,14.75
2022-12-08T19:21:33.233Z,14.13
2022-12-08T19:24:00.109Z,16.08
2022-12-08T19:26:28.501Z,14.02
2022-12-08T19:28:55.771Z,12.50
2022-12-08T19:31:22.556Z,12.18
2022-12-08T19:33:49.517Z,12.13
2022-12-08T19:36:18.835Z,12.52
2022-12-08T19:39:04.653Z,11.27
2022-12-08T19:41:50.147Z,11.55
2022-12-08T19:44:45.224Z,10.68
2022-12-08T19:47:12.146Z,10.63
2022-12-08T19:49:39.005Z,10.48
2022-12-08T19:52:06.539Z,11.75
2022-12-08T19:54:33.833Z,11.57
2022-12-08T19:57:01.146Z,14.05
2022-12-08T19:59:29.987Z,13.80
2022-12-08T20:01:58.220Z,14.07
2022-12-08T20:04:25.949Z,14.25
2022-12-08T20:06:54.091Z,13.63
2022-12-08T20:09:21.207Z,15.98
2022-12-08T20:11:48.007Z,14.75
2022-12-08T20:14:14.698Z,14.02
2022-12-08T20:16:41.709Z,13.57
2022-12-08T20:19:09.160Z,12.40
2022-12-08T20:21:35.934Z,14.05
2022-12-08T20:24:04.538Z,12.23
2022-12-08T20:26:31.395Z,12.07
2022-12-08T20:28:58.247Z,11.30
2022-12-08T20:31:28.041Z,11.30
2022-12-08T20:33:55.095Z,11.23
2022-12-08T20:36:22.448Z,11.38
2022-12-08T20:38:51.479Z,11.52
2022-12-08T20:41:19.449Z,11.93
2022-12-08T20:43:50.245Z,10.98
2022-12-08T20:46:18.999Z,10.93
2022-12-08T20:48:45.840Z,12.10
2022-12-08T20:51:15.288Z,10.95
2022-12-08T20:53:42.477Z,11.27
2022-12-08T20:56:14.646Z,11.10
2022-12-08T20:58:42.025Z,11.88
2022-12-08T21:01:10.771Z,10.27
2022-12-08T21:03:37.990Z,10.13
2022-12-08T21:06:05.068Z,11.68
2022-12-08T21:08:31.946Z,9.98
2022-12-08T21:10:58.848Z,11.38
2022-12-08T21:13:25.867Z,12.18
2022-12-08T21:15:52.948Z,12.23
2022-12-08T21:18:19.932Z,11.70
2022-12-08T21:20:48.250Z,11.60
2022-12-08T21:23:15.968Z,11.85
2022-12-08T21:25:47.394Z,11.48
2022-12-08T21:28:14.530Z,11.63
2022-12-08T21:30:43.220Z,10.82
2022-12-08T21:33:10.304Z,10.82
2022-12-08T21:35:37.660Z,12.85
2022-12-08T21:38:06.438Z,10.30
2022-12-08T21:40:35.179Z,10.43
2022-12-08T21:43:03.740Z,11.25
2022-12-08T21:45:32.632Z,12.05
2022-12-08T21:48:01.367Z,10.95
2022-12-08T21:50:31.256Z,9.95
2022-12-08T21:52:58.059Z,11.32
2022-12-08T21:55:25.060Z,11.38
2022-12-08T21:57:51.895Z,11.75
2022-12-08T22:00:19.360Z,10.77
2022-12-08T22:02:46.987Z,10.82
2022-12-08T22:05:13.974Z,11.82
2022-12-08T22:07:41.426Z,11.75
2022-12-08T22:10:10.385Z,11.68
2022-12-08T22:12:37.951Z,11.77
2022-12-08T22:15:07.289Z,11.25
2022-12-08T22:17:39.503Z,14.10
2022-12-08T22:20:08.788Z,12.38
2022-12-08T22:22:36.170Z,12.52
2022-12-08T22:25:05.512Z,11.85
2022-12-08T22:27:35.442Z,12.60
2022-12-08T22:30:02.913Z,10.77
2022-12-08T22:32:29.755Z,12.73
2022-12-08T22:34:56.598Z,11.48
2022-12-08T22:37:23.304Z,12.63
2022-12-08T22:39:50.187Z,11.00
2022-12-08T22:42:17.131Z,11.80
2022-12-08T22:44:43.976Z,10.95
2022-12-08T22:47:10.921Z,11.20
2022-12-08T22:49:37.744Z,11.60
2022-12-08T22:52:04.871Z,10.85
2022-12-08T22:54:31.785Z,12.30
2022-12-08T22:56:58.440Z,11.05
2022-12-08T22:59:25.371Z,12.40
2022-12-08T23:01:53.970Z,11.45
2022-12-08T23:04:20.884Z,11.50
2022-12-08T23:06:48.218Z,11.23
2022-12-08T23:09:15.238Z,11.15
2022-12-08T23:11:42.787Z,10.43
2022-12-08T23:14:09.515Z,9.63
2022-12-08T23:16:36.873Z,10.75
2022-12-08T23:19:03.816Z,10.52
2022-12-08T23:21:30.622Z,11.38
2022-12-08T23:23:57.366Z,11.07
2022-12-08T23:26:26.832Z,10.27
2022-12-08T23:28:54.089Z,10.38
2022-12-08T23:31:22.264Z,11.07
2022-12-08T23:33:49.308Z,10.77
2022-12-08T23:36:17.839Z,10.43
2022-12-08T23:38:44.794Z,11.55
2022-12-08T23:41:13.177Z,11.05
2022-12-08T23:43:45.384Z,10.15
2022-12-08T23:46:13.123Z,9.95
2022-12-08T23:48:40.205Z,10.30
2022-12-08T23:51:06.993Z,10.75
2022-12-08T23:53:34.054Z,11.20
2022-12-08T23:56:02.285Z,11.77
2022-12-08T23:58:30.888Z,10.55
